createdAt,value
2023-03-02T00:02:47.105Z,10.23
2023-03-02T00:05:50.971Z,7.78
2023-03-02T00:08:55.683Z,8.38
2023-03-02T00:11:59.559Z,7.60
2023-03-02T00:15:03.273Z,8.95
2023-03-02T00:18:07.624Z,7.88
2023-03-02T00:21:12.021Z,10.38
2023-03-02T00:24:18.557Z,12.52
2023-03-02T00:27:23.400Z,10.60
2023-03-02T00:30:27.770Z,8.60
2023-03-02T00:33:33.096Z,7.80
2023-03-02T00:36:37.505Z,7.15
2023-03-02T00:39:42.293Z,9.10
2023-03-02T00:42:46.738Z,6.87
2023-03-02T00:45:50.640Z,8.55
2023-03-02T00:48:54.724Z,10.80
2023-03-02T00:51:59.290Z,6.25
2023-03-02T00:55:03.175Z,33.45
2023-03-02T00:58:07.312Z,44.40
2023-03-02T01:01:13.765Z,7.80
2023-03-02T01:04:22.692Z,7.53
2023-03-02T01:07:28.965Z,5.65
2023-03-02T01:13:36.994Z,6.43
2023-03-02T01:16:40.772Z,6.78
2023-03-02T01:19:45.956Z,7.38
2023-03-02T01:22:49.880Z,7.93
2023-03-02T01:25:53.911Z,7.68
2023-03-02T01:28:58.350Z,10.82
2023-03-02T01:32:02.955Z,9.35
2023-03-02T01:35:07.522Z,8.35
2023-03-02T01:38:11.246Z,7.85
2023-03-02T01:41:15.689Z,8.85
2023-03-02T01:44:52.750Z,8.15
2023-03-02T01:47:57.092Z,7.38
2023-03-02T01:51:02.918Z,8.80
2023-03-02T01:54:18.001Z,9.65
2023-03-02T01:57:27.171Z,6.07
2023-03-02T02:00:38.472Z,5.60
2023-03-02T02:03:48.512Z,6.60
2023-03-02T02:07:08.336Z,7.78
2023-03-02T02:10:13.734Z,6.03
2023-03-02T02:13:18.688Z,4.85
2023-03-02T02:16:23.044Z,5.32
2023-03-02T02:19:35.558Z,7.88
2023-03-02T02:23:02.001Z,24.90
2023-03-02T02:26:21.759Z,5.78
2023-03-02T02:29:38.874Z,7.30
2023-03-02T02:32:44.581Z,6.47
2023-03-02T02:38:56.869Z,4.40
2023-03-02T02:42:08.318Z,21.27
2023-03-02T02:45:24.575Z,10.55
2023-03-02T02:48:32.326Z,8.75
2023-03-02T02:51:37.313Z,6.38
2023-03-02T02:54:43.051Z,5.45
2023-03-02T03:00:50.895Z,6.57
2023-03-02T03:03:56.966Z,8.07
2023-03-02T03:07:06.548Z,12.05
2023-03-02T03:10:19.915Z,4.93
2023-03-02T03:13:24.900Z,5.15
2023-03-02T03:16:31.788Z,7.23
2023-03-02T03:19:36.249Z,5.05
2023-03-02T03:22:41.120Z,4.63
2023-03-02T03:25:47.949Z,5.05
2023-03-02T03:28:52.034Z,4.88
2023-03-02T03:31:58.250Z,6.80
2023-03-02T03:35:04.304Z,8.40
2023-03-02T03:38:10.462Z,5.30
2023-03-02T03:41:14.870Z,7.27
2023-03-02T03:44:19.506Z,4.70
2023-03-02T03:47:24.090Z,4.15
2023-03-02T03:50:29.561Z,5.00
2023-03-02T03:53:34.523Z,5.70
2023-03-02T03:56:43.992Z,5.18
2023-03-02T03:59:49.233Z,7.30
2023-03-02T04:02:53.797Z,7.72
2023-03-02T04:05:58.497Z,4.80
2023-03-02T04:09:05.714Z,5.63
2023-03-02T04:12:12.768Z,5.38
2023-03-02T04:15:21.360Z,6.35
2023-03-02T04:18:27.834Z,4.20
2023-03-02T04:21:31.823Z,5.03
2023-03-02T04:24:35.723Z,5.32
2023-03-02T04:27:41.866Z,4.40
2023-03-02T04:30:46.607Z,4.38
2023-03-02T04:33:51.353Z,4.32
2023-03-02T04:36:56.405Z,5.95
2023-03-02T04:40:00.764Z,4.80
2023-03-02T04:43:06.892Z,4.57
2023-03-02T04:46:16.764Z,4.32
2023-03-02T04:49:21.989Z,4.50
2023-03-02T04:52:26.181Z,4.40
2023-03-02T04:55:30.001Z,5.15
2023-03-02T04:58:34.283Z,4.20
2023-03-02T05:01:38.689Z,4.18
2023-03-02T05:04:43.010Z,4.13
2023-03-02T05:07:47.371Z,12.95
2023-03-02T05:10:51.860Z,15.95
2023-03-02T05:14:02.326Z,8.05
2023-03-02T05:17:06.237Z,7.43
2023-03-02T05:20:12.669Z,4.80
2023-03-02T05:23:25.484Z,7.32
2023-03-02T05:26:30.001Z,6.30
2023-03-02T05:29:34.643Z,10.73
2023-03-02T05:32:39.087Z,7.03
2023-03-02T05:35:44.175Z,5.07
2023-03-02T05:38:48.673Z,5.90
2023-03-02T05:41:52.955Z,7.43
2023-03-02T05:44:57.538Z,5.40
2023-03-02T05:48:02.189Z,4.22
2023-03-02T05:51:07.147Z,4.95
2023-03-02T05:54:11.462Z,7.40
2023-03-02T05:57:15.714Z,6.88
2023-03-02T06:00:20.067Z,5.53
2023-03-02T06:03:24.271Z,8.90
2023-03-02T06:06:28.262Z,10.10
2023-03-02T06:09:32.021Z,6.05
2023-03-02T06:12:36.222Z,4.35
2023-03-02T06:15:41.519Z,5.68
2023-03-02T06:18:45.824Z,6.88
2023-03-02T06:21:50.346Z,10.25
2023-03-02T06:24:55.932Z,19.42
2023-03-02T06:27:59.666Z,11.73
2023-03-02T06:31:04.092Z,5.72
2023-03-02T06:34:08.369Z,5.65
2023-03-02T06:37:12.820Z,5.80
2023-03-02T06:40:17.504Z,4.75
2023-03-02T06:43:21.401Z,5.40
2023-03-02T06:46:25.784Z,5.18
2023-03-02T06:49:30.112Z,4.72
2023-03-02T06:52:34.541Z,5.25
2023-03-02T06:55:38.827Z,4.97
2023-03-02T06:58:43.044Z,4.50
2023-03-02T07:01:47.812Z,4.40
2023-03-02T07:04:51.602Z,5.45
2023-03-02T07:07:55.347Z,4.72
2023-03-02T07:10:59.464Z,5.03
2023-03-02T07:14:04.543Z,5.30
2023-03-02T07:17:09.620Z,5.40
2023-03-02T07:20:16.617Z,4.82
2023-03-02T07:23:21.609Z,5.07
2023-03-02T07:26:25.867Z,4.85
2023-03-02T07:29:30.620Z,4.40
2023-03-02T07:32:35.495Z,12.15
2023-03-02T07:35:40.229Z,11.03
2023-03-02T07:38:44.644Z,15.43
2023-03-02T07:41:49.270Z,12.73
2023-03-02T07:44:58.121Z,7.13
2023-03-02T07:48:02.922Z,7.43
2023-03-02T07:51:07.950Z,6.13
2023-03-02T07:54:12.532Z,8.07
2023-03-02T07:57:17.041Z,6.93
2023-03-02T08:00:22.247Z,7.65
2023-03-02T08:03:26.673Z,8.55
2023-03-02T08:06:31.710Z,8.40
2023-03-02T08:09:35.876Z,21.23
2023-03-02T08:12:40.098Z,5.63
2023-03-02T08:15:44.402Z,5.97
2023-03-02T08:18:48.708Z,12.15
2023-03-02T08:21:52.720Z,12.13
2023-03-02T08:24:59.092Z,9.63
2023-03-02T08:28:03.412Z,8.70
2023-03-02T08:31:09.069Z,7.38
2023-03-02T08:34:13.542Z,9.40
2023-03-02T08:37:18.064Z,9.25
2023-03-02T08:40:22.737Z,10.88
2023-03-02T08:43:27.384Z,9.85
2023-03-02T08:46:32.378Z,7.65
2023-03-02T08:49:38.770Z,8.65
2023-03-02T08:52:43.085Z,8.48
2023-03-02T08:55:47.594Z,10.40
2023-03-02T08:58:53.313Z,11.38
2023-03-02T09:05:02.492Z,10.45
2023-03-02T09:08:07.777Z,11.80
2023-03-02T09:11:13.696Z,22.10
2023-03-02T09:14:17.481Z,19.75
2023-03-02T09:17:22.840Z,27.30
2023-03-02T09:20:27.202Z,24.35
2023-03-02T09:23:32.140Z,13.18
2023-03-02T09:26:36.767Z,13.20
2023-03-02T09:29:40.772Z,17.60
2023-03-02T09:32:45.789Z,53.70
2023-03-02T09:35:51.062Z,110.78
2023-03-02T09:38:56.221Z,21.60
2023-03-02T09:42:12.686Z,29.67
2023-03-02T09:45:22.554Z,25.65
2023-03-02T09:48:34.619Z,36.38
2023-03-02T09:51:51.687Z,25.40
2023-03-02T09:54:57.505Z,21.35
2023-03-02T09:58:06.739Z,21.38
2023-03-02T10:01:17.281Z,22.45
2023-03-02T10:04:30.704Z,25.95
2023-03-02T10:07:38.960Z,25.00
2023-03-02T10:10:54.052Z,26.48
2023-03-02T10:14:08.151Z,27.05
2023-03-02T10:17:44.733Z,23.92
2023-03-02T10:21:14.159Z,23.98
2023-03-02T10:24:37.132Z,23.60
2023-03-02T10:27:44.801Z,32.00
2023-03-02T10:31:09.032Z,23.23
2023-03-02T10:34:17.725Z,17.52
2023-03-02T10:37:32.974Z,13.55
2023-03-02T10:40:45.455Z,29.90
2023-03-02T10:43:56.518Z,26.65
2023-03-02T10:47:01.301Z,18.50
2023-03-02T10:50:23.996Z,19.45
2023-03-02T10:53:29.919Z,19.40
2023-03-02T10:56:36.195Z,18.98
2023-03-02T10:59:51.542Z,19.42
2023-03-02T11:03:00.088Z,17.92
2023-03-02T11:06:23.601Z,21.00
2023-03-02T11:09:27.945Z,11.43
2023-03-02T11:12:33.974Z,10.18
2023-03-02T11:15:50.578Z,13.07
2023-03-02T11:18:57.766Z,13.27
2023-03-02T11:22:41.150Z,19.17
2023-03-02T11:25:53.344Z,18.75
2023-03-02T11:29:31.394Z,12.20
2023-03-02T11:32:50.074Z,11.00
2023-03-02T11:35:59.076Z,17.20
2023-03-02T11:39:10.130Z,14.00
2023-03-02T11:42:32.533Z,11.45
2023-03-02T11:45:43.154Z,13.32
2023-03-02T11:48:52.463Z,9.32
2023-03-02T11:52:01.588Z,11.38
2023-03-02T11:55:23.455Z,10.50
2023-03-02T11:58:30.927Z,15.70
2023-03-02T12:01:38.651Z,20.27
2023-03-02T12:04:43.623Z,18.35
2023-03-02T12:08:04.972Z,17.15
2023-03-02T12:11:18.277Z,12.00
2023-03-02T12:14:31.178Z,8.23
2023-03-02T12:17:35.832Z,7.43
2023-03-02T12:20:42.356Z,7.50
2023-03-02T12:23:52.088Z,6.85
2023-03-02T12:27:06.997Z,6.53
2023-03-02T12:30:24.538Z,6.47
2023-03-02T12:33:28.477Z,6.97
2023-03-02T12:36:42.544Z,7.20
2023-03-02T12:39:48.438Z,9.30
2023-03-02T12:43:11.805Z,10.02
2023-03-02T12:46:48.602Z,7.75
2023-03-02T12:53:06.142Z,9.63
2023-03-02T12:56:10.666Z,11.27
2023-03-02T12:59:28.392Z,10.55
2023-03-02T13:03:05.781Z,8.27
2023-03-02T13:06:17.525Z,6.10
2023-03-02T13:09:25.105Z,5.70
2023-03-02T13:12:30.197Z,7.22
2023-03-02T13:15:34.616Z,6.32
2023-03-02T13:18:40.481Z,6.95
2023-03-02T13:21:44.819Z,7.80
2023-03-02T13:24:57.253Z,7.45
2023-03-02T13:28:08.840Z,17.58
2023-03-02T13:31:20.455Z,20.05
2023-03-02T13:34:27.626Z,11.70
2023-03-02T13:37:44.465Z,6.90
2023-03-02T13:40:52.132Z,7.55
2023-03-02T13:43:56.654Z,7.00
2023-03-02T13:47:02.600Z,6.43
2023-03-02T13:50:10.823Z,7.97
2023-03-02T13:53:14.871Z,7.03
2023-03-02T13:56:19.822Z,7.30
2023-03-02T13:59:24.413Z,9.43
2023-03-02T14:02:30.999Z,9.65
2023-03-02T14:05:40.719Z,8.55
2023-03-02T14:08:45.028Z,8.57
2023-03-02T14:11:52.841Z,8.23
2023-03-02T14:15:01.592Z,7.10
2023-03-02T14:18:24.545Z,6.93
2023-03-02T14:21:29.745Z,6.50
2023-03-02T14:24:34.694Z,6.72
2023-03-02T14:27:40.984Z,7.72
2023-03-02T14:30:47.851Z,6.93
2023-03-02T14:33:53.384Z,6.55
2023-03-02T14:37:00.320Z,7.05
2023-03-02T14:40:07.171Z,6.68
2023-03-02T14:43:11.403Z,6.90
2023-03-02T14:46:15.672Z,7.18
2023-03-02T14:49:20.538Z,8.25
2023-03-02T14:52:42.330Z,8.23
2023-03-02T14:55:48.002Z,7.15
2023-03-02T14:58:55.435Z,8.25
2023-03-02T15:02:06.184Z,8.50
2023-03-02T15:05:17.414Z,9.10
2023-03-02T15:08:29.711Z,8.50
2023-03-02T15:11:34.819Z,9.95
2023-03-02T15:14:39.463Z,8.77
2023-03-02T15:17:46.077Z,8.25
2023-03-02T15:20:50.464Z,8.57
2023-03-02T15:23:55.096Z,8.20
2023-03-02T15:26:59.844Z,7.87
2023-03-02T15:30:04.452Z,7.63
2023-03-02T15:33:09.020Z,8.25
2023-03-02T15:36:13.770Z,7.72
2023-03-02T15:39:18.187Z,7.72
2023-03-02T15:42:22.944Z,7.30
2023-03-02T15:45:28.408Z,8.60
2023-03-02T15:48:32.802Z,8.27
2023-03-02T15:51:39.422Z,8.13
2023-03-02T15:54:43.387Z,9.15
2023-03-02T15:57:47.387Z,8.50
2023-03-02T16:00:54.157Z,8.38
2023-03-02T16:04:01.349Z,8.77
2023-03-02T16:07:05.754Z,6.95
2023-03-02T16:10:15.850Z,8.07
2023-03-02T16:13:19.890Z,7.65
2023-03-02T16:16:24.413Z,7.80
2023-03-02T16:19:28.806Z,8.38
2023-03-02T16:22:33.105Z,7.75
2023-03-02T16:25:40.716Z,8.02
2023-03-02T16:28:45.198Z,8.93
2023-03-02T16:31:50.248Z,8.38
2023-03-02T16:34:56.199Z,8.75
2023-03-02T16:38:00.410Z,7.53
2023-03-02T16:41:06.372Z,7.93
2023-03-02T16:44:12.556Z,7.60
2023-03-02T16:47:16.644Z,7.78
2023-03-02T16:50:20.960Z,8.25
2023-03-02T16:53:25.678Z,7.57
2023-03-02T16:56:29.899Z,7.95
2023-03-02T16:59:33.884Z,6.10
2023-03-02T17:02:38.111Z,8.18
2023-03-02T17:05:44.237Z,7.95
2023-03-02T17:08:48.329Z,7.45
2023-03-02T17:11:52.249Z,7.97
2023-03-02T17:14:56.159Z,7.75
2023-03-02T17:18:00.215Z,11.13
2023-03-02T17:21:05.922Z,9.45
2023-03-02T17:24:10.268Z,9.05
2023-03-02T17:27:24.645Z,8.10
2023-03-02T17:30:29.921Z,7.78
2023-03-02T17:33:34.856Z,7.78
2023-03-02T17:36:39.446Z,8.57
2023-03-02T17:39:43.878Z,8.13
2023-03-02T17:42:48.245Z,8.18
2023-03-02T17:45:52.120Z,8.60
2023-03-02T17:48:58.348Z,7.90
2023-03-02T17:52:02.253Z,8.07
2023-03-02T17:55:06.756Z,6.82
2023-03-02T17:58:11.022Z,8.07
2023-03-02T18:01:16.554Z,7.35
2023-03-02T18:04:20.929Z,7.22
2023-03-02T18:07:25.185Z,8.38
2023-03-02T18:10:29.668Z,8.85
2023-03-02T18:13:33.762Z,7.03
2023-03-02T18:16:37.990Z,7.78
2023-03-02T18:19:42.773Z,8.50
2023-03-02T18:22:47.278Z,8.23
2023-03-02T18:25:51.684Z,11.13
2023-03-02T18:28:56.379Z,11.23
2023-03-02T18:32:01.916Z,23.67
2023-03-02T18:35:06.769Z,18.52
2023-03-02T18:38:11.240Z,25.80
2023-03-02T18:41:16.002Z,21.60
2023-03-02T18:44:20.789Z,15.47
2023-03-02T18:47:25.106Z,12.73
2023-03-02T18:50:30.627Z,8.57
2023-03-02T18:53:35.125Z,9.65
2023-03-02T18:56:41.350Z,8.15
2023-03-02T18:59:45.624Z,9.57
2023-03-02T19:02:50.502Z,8.88
2023-03-02T19:05:57.965Z,9.57
2023-03-02T19:09:02.123Z,9.60
2023-03-02T19:12:06.701Z,8.88
2023-03-02T19:15:14.546Z,8.68
2023-03-02T19:18:22.646Z,8.27
2023-03-02T19:21:26.962Z,9.40
2023-03-02T19:24:31.713Z,9.85
2023-03-02T19:27:35.950Z,8.90
2023-03-02T19:30:40.821Z,8.43
2023-03-02T19:33:46.106Z,9.02
2023-03-02T19:39:55.183Z,8.50
2023-03-02T19:42:59.731Z,8.85
2023-03-02T19:46:05.727Z,9.13
2023-03-02T19:49:10.296Z,9.55
2023-03-02T19:52:14.175Z,9.60
2023-03-02T19:55:18.434Z,8.73
2023-03-02T19:58:24.471Z,10.88
2023-03-02T20:01:30.733Z,8.57
2023-03-02T20:04:35.117Z,10.25
2023-03-02T20:07:41.637Z,9.52
2023-03-02T20:10:47.892Z,10.27
2023-03-02T20:13:53.986Z,11.70
2023-03-02T20:16:58.643Z,10.63
2023-03-02T20:20:04.433Z,10.97
2023-03-02T20:23:09.383Z,10.25
2023-03-02T20:26:13.834Z,13.07
2023-03-02T20:29:19.509Z,12.18
2023-03-02T20:32:23.543Z,10.48
2023-03-02T20:35:31.942Z,13.82
2023-03-02T20:38:39.662Z,21.65
2023-03-02T20:41:44.071Z,33.35
2023-03-02T20:44:48.471Z,19.45
2023-03-02T20:47:52.774Z,10.45
2023-03-02T20:50:59.866Z,9.80
2023-03-02T20:54:05.960Z,8.48
2023-03-02T20:57:12.405Z,10.20
2023-03-02T21:00:21.458Z,11.27
2023-03-02T21:03:25.544Z,29.83
2023-03-02T21:06:35.306Z,24.90
2023-03-02T21:09:40.117Z,28.70
2023-03-02T21:12:45.458Z,21.23
2023-03-02T21:15:50.403Z,16.52
2023-03-02T21:18:58.244Z,15.85
2023-03-02T21:22:03.103Z,11.73
2023-03-02T21:25:10.084Z,11.10
2023-03-02T21:28:14.376Z,13.70
2023-03-02T21:31:20.464Z,9.68
2023-03-02T21:34:25.303Z,8.82
2023-03-02T21:37:29.726Z,8.50
2023-03-02T21:40:38.534Z,10.20
2023-03-02T21:43:43.133Z,14.13
2023-03-02T21:46:59.346Z,19.25
2023-03-02T21:53:08.387Z,23.42
2023-03-02T21:56:21.208Z,21.00
2023-03-02T21:59:25.471Z,29.77
2023-03-02T22:02:29.852Z,14.95
2023-03-02T22:05:35.282Z,12.85
2023-03-02T22:08:40.111Z,14.18
2023-03-02T22:11:44.721Z,11.60
2023-03-02T22:14:48.961Z,39.50
2023-03-02T22:17:53.482Z,27.17
2023-03-02T22:20:57.894Z,30.27
2023-03-02T22:24:11.849Z,34.55
2023-03-02T22:27:29.873Z,29.58
2023-03-02T22:30:34.193Z,22.90
2023-03-02T22:33:38.844Z,10.30
2023-03-02T22:36:43.349Z,9.48
2023-03-02T22:39:49.536Z,12.80
2023-03-02T22:43:03.147Z,21.50
2023-03-02T22:46:16.202Z,28.77
2023-03-02T22:49:20.603Z,11.25
2023-03-02T22:52:26.884Z,11.60
2023-03-02T22:55:41.525Z,9.48
2023-03-02T22:58:50.209Z,26.02
2023-03-02T23:02:08.948Z,29.50
2023-03-02T23:05:31.936Z,22.08
2023-03-02T23:08:36.229Z,13.07
2023-03-02T23:11:43.047Z,24.33
2023-03-02T23:14:54.311Z,31.08
2023-03-02T23:17:58.900Z,44.80
2023-03-02T23:21:03.277Z,60.55
2023-03-02T23:24:09.657Z,39.00
2023-03-02T23:27:14.041Z,29.70
2023-03-02T23:30:21.411Z,19.15
2023-03-02T23:33:25.727Z,25.35
2023-03-02T23:36:31.643Z,30.58
2023-03-02T23:39:36.085Z,25.73
2023-03-02T23:42:40.633Z,30.58
2023-03-02T23:45:44.922Z,18.02
2023-03-02T23:48:49.422Z,16.17
2023-03-02T23:51:53.722Z,19.80
2023-03-02T23:54:58.001Z,33.00
2023-03-02T23:58:02.398Z,21.42
